• Join FlightAware (Why Join?)
  • Login
  • US Flag 
03:25AM EDT


 

Airport Tracker/Info


-or-


 

Live Flight TrackerFlight Track Log ✈ SWA419 ✈ 19-Apr-2013 ✈ KDEN - KSJC

Flight Track Log - Related Links

Times and Time Zones

All times are in EDT time to prevent confusion due to time zone crossing. See the SWA419 flight status page for this flight to view local times or setup timezone preferences in your user account.

Time Position Orientation Groundspeed Altitude Reporting Facility
EDT Latitude Longitude Course Direction KTS MPH feet Rate Location/Type
10:00PM 39.8500 -104.7667 303° West 177 204 7,300  Level Denver TRACON
10:01PM 39.8833 -104.8333 303° West 214 246 9,800 2,340 Climbing Denver TRACON
10:02PM 39.9000 -104.8833 293° West 238 274 11,800 1,920 Climbing Denver TRACON
10:03PM 39.9286 -105.0003 288° West 319 367 13,600 2,340 Climbing Denver Center
10:04PM 39.9169 -105.1275 263° West 353 406 16,700 2,820 Climbing Denver Center
10:05PM 39.9042 -105.2583 263° West 364 419 19,500 2,700 Climbing Denver Center
10:06PM 39.8894 -105.4069 263° West 383 441 22,300 1,860 Climbing Denver Center
10:07PM 39.8772 -105.5483 264° West 392 451 23,400 1,680 Climbing Denver Center
10:08PM 39.8608 -105.7067 262° West 397 457 25,800 2,040 Climbing Denver Center
10:09PM 39.8478 -105.8533 263° West 403 464 27,700 1,800 Climbing Denver Center
10:10PM 39.8353 -106.0047 264° West 415 478 29,600 1,800 Climbing Denver Center
10:11PM 39.8222 -106.1306 262° West 417 480 31,500 1,980 Climbing Denver Center
10:12PM 39.8081 -106.3003 264° West 403 464 33,700 1,740 Climbing Denver Center
10:13PM 39.7950 -106.4458 263° West 402 463 35,200 1,500 Climbing Denver Center
10:14PM 39.7817 -106.6003 264° West 406 467 36,800 1,200 Climbing Denver Center
10:15PM 39.7644 -106.7406 261° West 398 458 37,800 660 Climbing Denver Center
10:16PM 39.7508 -106.8547 261° West 400 460 38,200 540 Climbing Denver Center
10:17PM 39.7336 -107.0311 263° West 412 474 39,000 840 Climbing Denver Center
10:18PM 39.7167 -107.1781 262° West 416 479 40,000 480 Climbing Denver Center
10:19PM 39.6986 -107.3375 262° West 407 468 40,000  Level Denver Center
10:20PM 39.6806 -107.4997 262° West 407 468 40,000  Level Denver Center
10:21PM 39.6636 -107.6375 261° West 405 466 40,000  Level Denver Center
10:22PM 39.6456 -107.7989 262° West 404 465 40,000  Level Denver Center
10:23PM 39.6272 -107.9378 260° West 408 470 40,000  Level Denver Center
10:24PM 39.6086 -108.0981 261° West 403 464 40,000  Level Denver Center
10:25PM 39.5922 -108.2367 261° West 405 466 40,000  Level Denver Center
10:26PM 39.5722 -108.3975 261° West 404 465 40,000  Level Denver Center
10:27PM 39.5553 -108.5331 261° West 397 457 40,000  Level Denver Center
10:28PM 39.5386 -108.6697 261° West 396 456 40,000  Level Denver Center
10:29PM 39.5169 -108.8297 260° West 396 456 40,000  Level Denver Center
10:31PM 39.4992 -108.9669 261° West 398 458 40,000  Level Denver Center
10:32PM 39.4822 -109.1025 261° West 399 459 40,000  Level Denver Center
10:33PM 39.4606 -109.2608 260° West 399 459 40,000  Level Denver Center
10:34PM 39.4436 -109.3967 261° West 398 458 40,000  Level Denver Center
10:34PM 39.4325 -109.4872 261° West 398 458 40,000  Level Salt Lake Center
10:35PM 39.4144 -109.6217 260° West 398 458 40,000  Level Salt Lake Center
10:36PM 39.4047 -109.6894 260° West 400 460 40,000  Level Denver Center
10:37PM 39.3828 -109.8464 260° West 398 458 40,000  Level Denver Center
10:37PM 39.3744 -109.9156 261° West 401 461 40,000  Level Salt Lake Center
10:38PM 39.3519 -110.0725 260° West 399 459 40,000  Level Salt Lake Center
10:39PM 39.3331 -110.2089 260° West 403 464 40,000  Level Salt Lake Center
10:40PM 39.3142 -110.3453 260° West 403 464 40,000  Level Salt Lake Center
10:41PM 39.3042 -110.4133 259° West 404 465 40,000  Level Denver Center
10:42PM 39.2806 -110.5728 259° West 405 466 40,000  Level Denver Center
10:42PM 39.2711 -110.6422 260° West 407 468 40,000  Level Salt Lake Center
10:43PM 39.2497 -110.8025 260° West 405 466 40,000  Level Salt Lake Center
10:44PM 39.2261 -110.9386 257° West 406 467 40,000  Level Salt Lake Center
10:45PM 39.2044 -111.0958 260° West 401 461 40,000  Level Salt Lake Center
10:47PM 39.1839 -111.2272 259° West 393 452 40,000  Level Salt Lake Center
10:48PM 39.1656 -111.3697 261° West 392 451 40,000  Level Salt Lake Center
10:49PM 39.1436 -111.5089 259° West 396 456 40,000  Level Salt Lake Center
10:50PM 39.1214 -111.6508 259° West 405 466 40,000  Level Salt Lake Center
10:51PM 39.0992 -111.7928 259° West 407 468 40,000  Level Salt Lake Center
10:52PM 39.0775 -111.9339 259° West 404 465 40,000  Level Salt Lake Center
10:53PM 39.0503 -112.1036 258° West 405 466 40,000  Level Salt Lake Center
10:54PM 39.0281 -112.2444 259° West 404 465 40,000  Level Salt Lake Center
10:55PM 39.0058 -112.3850 259° West 404 465 40,000  Level Salt Lake Center
10:56PM 38.9831 -112.5272 258° West 407 468 40,000  Level Salt Lake Center
10:57PM 38.9594 -112.6647 258° West 400 460 40,000  Level Salt Lake Center
10:58PM 38.9367 -112.8056 258° West 404 465 40,000  Level Salt Lake Center
10:59PM 38.9136 -112.9456 258° West 404 465 40,000  Level Salt Lake Center
11:00PM 38.8861 -113.1114 258° West 400 460 40,000  Level Salt Lake Center
11:01PM 38.8631 -113.2517 258° West 401 461 40,000  Level Salt Lake Center
11:02PM 38.8386 -113.3894 257° West 396 456 40,000  Level Salt Lake Center
11:03PM 38.8150 -113.5283 258° West 399 459 40,000  Level Salt Lake Center
11:04PM 38.7917 -113.6672 258° West 401 461 40,000  Level Salt Lake Center
11:05PM 38.7669 -113.8064 257° West 402 463 40,000  Level Salt Lake Center
11:06PM 38.7431 -113.9456 258° West 401 461 40,000  Level Salt Lake Center
11:07PM 38.7194 -114.0825 258° West 397 457 40,000  Level Salt Lake Center
11:08PM 38.6894 -114.2492 257° West 401 461 40,000  Level Salt Lake Center
11:09PM 38.6647 -114.3886 257° West 404 465 40,000  Level Salt Lake Center
11:10PM 38.6389 -114.5278 257° West 405 466 40,000  Level Salt Lake Center
11:11PM 38.6144 -114.6661 257° West 402 463 40,000  Level Salt Lake Center
11:12PM 38.5889 -114.8003 256° West 393 452 40,000  Level Salt Lake Center
11:13PM 38.5639 -114.9339 257° West 389 448 40,000  Level Salt Lake Center
11:14PM 38.5397 -115.0683 257° West 390 449 40,000  Level Salt Lake Center
11:15PM 38.5144 -115.2036 257° West 392 451 40,000  Level Salt Lake Center
11:16PM 38.4872 -115.3458 256° West 393 452 40,000  Level Salt Lake Center
11:17PM 38.4617 -115.4828 257° West 397 457 40,000  Level Salt Lake Center
11:18PM 38.4322 -115.6164 254° West 393 452 40,000  Level Salt Lake Center
11:19PM 38.3822 -115.7686 247° West 389 448 40,000  Level Salt Lake Center
11:20PM 38.3425 -115.8964 248° West 389 448 40,000  Level Salt Lake Center
11:21PM 38.3022 -116.0267 249° West 393 452 40,000  Level Salt Lake Center
11:22PM 38.2606 -116.1569 248° West 399 459 40,000  Level Salt Lake Center
11:23PM 38.2189 -116.2894 248° West 402 463 40,000  Level Salt Lake Center
11:24PM 38.1767 -116.4186 247° West 397 457 40,000  Level Salt Lake Center
11:25PM 38.1614 -116.4711 250° West 397 457 40,000  Level Oakland Center
11:26PM 38.1194 -116.6025 248° West 398 458 40,000  Level Oakland Center
11:26PM 38.0931 -116.6814 247° West 401 461 40,000  Level Salt Lake Center
11:27PM 38.0506 -116.8139 248° West 403 464 40,000  Level Salt Lake Center
11:28PM 38.0072 -116.9456 247° West 401 461 40,000  Level Salt Lake Center
11:29PM 37.9900 -116.9983 248° West 400 460 40,000  Level Oakland Center
11:30PM 37.9461 -117.1317 247° West 402 463 40,000  Level Oakland Center
11:31PM 37.9028 -117.2631 247° West 399 459 40,000  Level Oakland Center
11:32PM 37.8617 -117.3922 248° West 395 455 40,000  Level Oakland Center
11:33PM 37.8189 -117.5211 247° West 394 453 40,000 -480 Level Oakland Center
11:34PM 37.7756 -117.6494 247° West 395 455 39,100 -900 Descending Oakland Center
11:35PM 37.7319 -117.7822 247° West 412 474 38,200 -900 Descending Oakland Center
11:36PM 37.6881 -117.9131 247° West 406 467 37,300 -1,020 Descending Oakland Center
11:37PM 37.6478 -118.0331 247° West 377 434 36,200 -1,020 Descending Oakland Center
11:38PM 37.6072 -118.1561 247° West 379 436 35,300 -1,080 Descending Oakland Center
11:39PM 37.5564 -118.3044 247° West 383 441 34,100 -1,080 Descending Oakland Center
11:40PM 37.5125 -118.4297 246° West 390 449 33,200 -960 Descending Oakland Center
11:41PM 37.4675 -118.5572 246° West 395 455 32,200 -1,020 Descending Oakland Center
11:42PM 37.4242 -118.6853 247° West 398 458 31,200 -1,140 Descending Oakland Center
11:43PM 37.3867 -118.8125 250° West 378 435 30,000 -720 Descending Oakland Center
11:44PM 37.3731 -118.9386 262° West 366 421 29,800 -600 Descending Oakland Center
11:45PM 37.3611 -119.0644 263° West 365 420 28,800 -1,020 Descending Oakland Center
11:46PM 37.3483 -119.1956 263° West 385 443 27,800 -1,020 Descending Oakland Center
11:47PM 37.3358 -119.3236 263° West 367 422 26,800 -1,020 Descending Oakland Center
11:48PM 37.3231 -119.4506 263° West 367 422 25,800 -1,020 Descending Oakland Center
11:49PM 37.3100 -119.5739 262° West 361 415 24,800 -1,080 Descending Oakland Center
11:50PM 37.2961 -119.6981 262° West 359 413 23,700 -1,140 Descending Oakland Center
11:51PM 37.2803 -119.8411 262° West 361 415 22,600 -1,080 Descending Oakland Center
11:52PM 37.2661 -119.9636 262° West 350 403 21,600 -1,020 Descending Oakland Center
11:53PM 37.2528 -120.0847 262° West 349 402 20,600 -1,020 Descending Oakland Center
11:54PM 37.2386 -120.2039 262° West 348 400 19,600 -1,020 Descending Oakland Center
11:55PM 37.2261 -120.3231 263° West 346 398 18,600 -1,080 Descending Oakland Center
11:56PM 37.2167 -120.3833 259° West 342 394 18,000 -1,200 Descending Northern Cal TRACON
11:57PM 37.2000 -120.5000 260° West 400 460 16,800 -1,740 Descending Northern Cal TRACON
11:58PM 37.1667 -120.6167 250° West 342 394 14,600 -1,920 Descending Northern Cal TRACON
11:59PM 37.1500 -120.7333 260° West 322 371 13,000 -1,320 Descending Northern Cal TRACON
12:00AM 37.1500 -120.8333 270° West 309 356 12,000 -960 Descending Northern Cal TRACON
12:00AM 37.1608 -120.8825 285° West 291 335 11,600 -1,020 Descending Oakland Center
12:01AM 37.1608 -120.9928 270° West 311 358 10,500 -840 Descending Oakland Center
12:02AM 37.1614 -121.0939 270° West 296 341 9,900 -300 Descending Oakland Center
12:03AM 37.1619 -121.1850 270° West 270 311 10,000  Climbing Oakland Center
12:04AM 37.1631 -121.2775 271° West 265 305 10,000  Level Oakland Center
12:05AM 37.1633 -121.3700 270° West 265 305 10,000 -1,140 Level Oakland Center
12:06AM 37.1633 -121.4622 270° West 264 304 7,700 -1,860 Descending Oakland Center
12:07AM 37.1631 -121.5525 270° West 261 300 6,300 -1,140 Descending Oakland Center
12:08AM 37.1614 -121.6364 269° West 239 275 5,500 -600 Descending Oakland Center
12:09AM 37.1606 -121.6992 269° West 208 239 5,100 -600 Descending Oakland Center
12:10AM 37.1858 -121.7403 308° West 180 207 4,400 -840 Descending Oakland Center
12:11AM 37.2214 -121.7764 321° Northwest 170 196 3,500 -900 Descending Oakland Center
12:12AM 37.2542 -121.8119 319° Northwest 164 189 2,600 -840 Descending Oakland Center
12:14AM 37.2894 -121.8489 320° Northwest 149 171 1,800 -780 Descending Oakland Center
12:15AM 37.3167 -121.8756 322° Northwest 135 155 1,100 -720 Descending Oakland Center
12:16AM 37.3439 -121.9067 318° Northwest 132 152 400 -720 Descending Oakland Center
12:18AM 37.3500 -121.9167 North  Level FlightAware Approximate